Weather reports worldwide

Advertisment
Bealach, United Kingdom (3039): temperature & dewpoint: 19.05.2018 04:00:00 - 25.05.2018 04:00:00 (BST)Bealach, United Kingdom (3039): wind speed & gusts: 19.05.2018 04:00:00 - 25.05.2018 04:00:00 (BST)Bealach, United Kingdom (3039): wind direction: 19.05.2018 04:00:00 - 25.05.2018 04:00:00 (BST)
Date & Time tt [°C] td [°C] ff [km/h] ff [kn] fx [km/h] fx [kn] dd
25.05.2018 04:00:00 10,7 8,4 8 4 - - E
25.05.2018 03:00:00 10,6 8,4 5 3 - - E
25.05.2018 02:00:00 9,7 7,6 4 2 - - W
25.05.2018 01:00:00 10,4 8,0 2 1 - - ENE
25.05.2018 00:00:00 10,4 7,6 2 1 - - WSW
24.05.2018 23:00:00 10,8 7,4 8 4 - - NW
24.05.2018 22:00:00 10,5 7,7 9 5 - - NW
24.05.2018 21:00:00 12,4 4,4 8 4 - - W
24.05.2018 20:00:00 12,8 6,3 13 7 - - WSW
24.05.2018 19:00:00 13,4 5,3 21 11 - - SW
24.05.2018 18:00:00 13,9 4,4 26 14 - - SW
24.05.2018 17:00:00 13,4 4,4 24 13 - - WSW
24.05.2018 16:00:00 13,8 5,5 26 14 - - WSW
24.05.2018 15:00:00 13,7 4,4 29 16 - - SSW
24.05.2018 14:00:00 13,1 3,6 24 13 - - SSW
24.05.2018 13:00:00 12,8 3,0 26 14 - - SSW
24.05.2018 12:00:00 11,9 0,5 22 12 - - S
24.05.2018 11:00:00 11,9 3,2 16 9 - - S
24.05.2018 10:00:00 11,5 0,8 11 6 - - SSE
24.05.2018 09:00:00 10,9 2,4 13 7 - - SE
24.05.2018 08:00:00 9,9 3,9 26 14 - - SSE
24.05.2018 07:00:00 9,6 5,2 28 15 - - SSE
24.05.2018 06:00:00 9,4 5,1 28 15 - - SSE
24.05.2018 05:00:00 9,9 5,5 31 17 - - SSE
24.05.2018 04:00:00 10,1 5,8 29 16 - - SSE
24.05.2018 03:00:00 10,1 6,6 28 15 - - SSE
24.05.2018 02:00:00 10,0 7,1 16 9 - - SE
24.05.2018 01:00:00 10,5 7,3 16 9 - - SE
24.05.2018 00:00:00 10,0 7,7 8 4 - - SE
23.05.2018 23:00:00 10,3 7,0 15 8 - - SSE
23.05.2018 22:00:00 11,0 6,5 22 12 - - S
23.05.2018 21:00:00 10,9 5,9 21 11 - - SSW
23.05.2018 20:00:00 11,6 3,6 15 8 - - SSW
23.05.2018 19:00:00 12,4 0,6 11 6 - - S
23.05.2018 18:00:00 12,5 1,1 5 3 - - SSE
23.05.2018 17:00:00 11,8 2,6 11 6 - - SSW
23.05.2018 16:00:00 11,6 0,9 13 7 - - S
23.05.2018 15:00:00 11,8 -0,5 8 4 - - E
23.05.2018 14:00:00 10,5 -1,5 8 4 - - S
23.05.2018 13:00:00 9,8 -1,3 8 4 - - SSE
23.05.2018 12:00:00 8,7 -2,0 5 3 - - E
23.05.2018 11:00:00 7,3 2,5 9 5 - - S
23.05.2018 10:00:00 7,0 3,8 11 6 - - S
23.05.2018 09:00:00 6,6 2,5 9 5 - - SSW
23.05.2018 08:00:00 6,1 4,9 13 7 - - SSW
23.05.2018 07:00:00 6,1 5,0 16 9 - - SSW
23.05.2018 06:00:00 6,3 5,5 18 10 - - SSW
23.05.2018 05:00:00 6,5 4,4 13 7 - - SSW
23.05.2018 04:00:00 6,7 4,1 13 7 - - SSW
23.05.2018 03:00:00 6,6 5,3 16 9 - - S
23.05.2018 02:00:00 5,6 5,3 13 7 - - SSE
23.05.2018 01:00:00 5,3 5,1 5 3 - - SE
23.05.2018 00:00:00 4,3 4,3 8 4 - - ESE
22.05.2018 23:00:00 5,6 5,5 5 3 - - SE
22.05.2018 22:00:00 4,5 4,5 5 3 - - ESE
22.05.2018 21:00:00 4,3 4,1 11 6 - - ESE
22.05.2018 20:00:00 4,2 3,9 24 13 - - ESE
22.05.2018 19:00:00 4,3 4,2 18 10 - - ESE
22.05.2018 18:00:00 5,0 4,3 11 6 - - E
22.05.2018 17:00:00 5,2 4,5 11 6 - - E
22.05.2018 16:00:00 5,4 4,6 15 8 - - E
22.05.2018 15:00:00 5,5 5,1 9 5 - - E
22.05.2018 14:00:00 5,0 4,5 11 6 48 26 E
22.05.2018 13:00:00 4,5 4,3 18 10 52 28 E
22.05.2018 12:00:00 4,0 3,9 21 11 46 25 E
22.05.2018 11:00:00 3,2 3,2 15 8 48 26 E
22.05.2018 10:00:00 2,5 2,5 24 13 50 27 E
22.05.2018 09:00:00 2,0 2,0 34 18 63 34 E
22.05.2018 08:00:00 1,6 1,6 42 23 65 35 E
22.05.2018 07:00:00 1,5 1,5 48 26 65 35 E
22.05.2018 06:00:00 0,9 0,9 37 20 59 32 E
22.05.2018 05:00:00 0,9 0,9 21 11 - - E
22.05.2018 04:00:00 1,3 1,3 15 8 - - E
22.05.2018 03:00:00 1,2 1,2 13 7 - - E
22.05.2018 02:00:00 1,3 1,3 13 7 - - E
22.05.2018 01:00:00 1,3 1,3 15 8 - - E
22.05.2018 00:00:00 2,1 2,1 13 7 - - E
21.05.2018 23:00:00 2,6 2,6 21 11 - - NE
21.05.2018 22:00:00 2,5 2,5 24 13 - - NE
21.05.2018 21:00:00 1,9 1,9 22 12 - - NNE
21.05.2018 20:00:00 1,9 1,9 31 17 48 26 NNE
21.05.2018 19:00:00 0,7 0,7 34 18 46 25 N
21.05.2018 18:00:00 1,0 1,0 26 14 52 28 N
21.05.2018 17:00:00 1,7 1,7 34 18 52 28 N
21.05.2018 16:00:00 2,2 2,2 28 15 - - N
21.05.2018 15:00:00 2,4 2,4 22 12 52 28 N
21.05.2018 14:00:00 2,2 2,2 34 18 55 30 N
21.05.2018 13:00:00 1,9 1,9 44 24 65 35 N
21.05.2018 12:00:00 2,2 2,2 44 24 59 32 N
21.05.2018 11:00:00 3,1 3,1 46 25 57 31 N
21.05.2018 10:00:00 4,6 4,6 18 10 - - N
21.05.2018 09:00:00 4,7 4,7 13 7 - - N
21.05.2018 08:00:00 4,4 4,4 13 7 - - NW
21.05.2018 07:00:00 5,4 5,4 13 7 - - NNW
21.05.2018 06:00:00 7,0 6,9 8 4 - - NW
21.05.2018 05:00:00 7,1 7,1 5 3 - - W
21.05.2018 04:00:00 7,4 7,4 9 5 - - SSW
21.05.2018 03:00:00 7,7 7,7 18 10 - - SSW
21.05.2018 02:00:00 7,8 7,8 15 8 - - SSW
21.05.2018 01:00:00 7,8 7,8 21 11 - - SW
21.05.2018 00:00:00 8,3 8,3 31 17 - - SSW
20.05.2018 23:00:00 8,5 8,5 31 17 48 26 S
20.05.2018 22:00:00 8,6 8,6 29 16 48 26 S
20.05.2018 21:00:00 8,6 8,6 35 19 55 30 S
20.05.2018 20:00:00 8,7 8,7 34 18 57 31 S
20.05.2018 19:00:00 8,6 8,6 28 15 59 32 S
20.05.2018 18:00:00 8,4 8,4 41 22 67 36 S
20.05.2018 17:00:00 8,3 8,3 37 20 70 38 S
20.05.2018 16:00:00 8,2 8,2 42 23 68 37 S
20.05.2018 15:00:00 8,0 8,0 42 23 70 38 S
20.05.2018 14:00:00 7,9 7,8 50 27 80 43 S
20.05.2018 13:00:00 7,6 7,6 59 32 85 46 S
20.05.2018 12:00:00 7,4 7,4 61 33 89 48 S
20.05.2018 11:00:00 7,5 7,4 50 27 85 46 S
20.05.2018 10:00:00 7,3 7,3 31 17 76 41 S
20.05.2018 09:00:00 7,2 7,2 37 20 78 42 S
20.05.2018 08:00:00 7,0 7,0 41 22 89 48 S
20.05.2018 07:00:00 6,9 6,9 34 18 91 49 SSE
20.05.2018 06:00:00 6,7 6,7 68 37 94 51 S
20.05.2018 05:00:00 6,6 6,6 63 34 102 55 S
20.05.2018 04:00:00 6,6 6,6 68 37 104 56 S
20.05.2018 03:00:00 6,9 6,9 54 29 93 50 S
20.05.2018 02:00:00 7,1 7,1 70 38 106 57 S
20.05.2018 01:00:00 7,8 7,4 80 43 102 55 S
20.05.2018 00:00:00 9,5 6,6 48 26 89 48 S
19.05.2018 23:00:00 9,8 5,5 31 17 72 39 S
19.05.2018 22:00:00 9,8 4,3 34 18 85 46 SSE
19.05.2018 21:00:00 10,1 4,0 31 17 78 42 S
19.05.2018 20:00:00 10,4 3,6 34 18 76 41 S
19.05.2018 19:00:00 10,3 4,4 41 22 74 40 S
19.05.2018 18:00:00 10,2 4,4 41 22 76 41 S
19.05.2018 17:00:00 10,5 3,5 48 26 81 44 S
19.05.2018 16:00:00 10,8 3,5 48 26 81 44 S
19.05.2018 15:00:00 10,8 3,4 39 21 91 49 S
19.05.2018 14:00:00 9,7 4,4 46 25 85 46 SSE
19.05.2018 13:00:00 9,1 4,6 34 18 78 42 SSE
19.05.2018 12:00:00 8,4 4,8 28 15 61 33 SSE
19.05.2018 11:00:00 8,0 4,5 39 21 70 38 S
19.05.2018 10:00:00 7,8 4,8 29 16 57 31 S
19.05.2018 09:00:00 7,5 5,4 26 14 61 33 SSE
19.05.2018 08:00:00 7,7 5,4 39 21 61 33 SSE
19.05.2018 07:00:00 7,4 5,7 29 16 55 30 SSE
19.05.2018 06:00:00 7,0 5,9 28 15 52 28 SSE
19.05.2018 05:00:00 6,8 6,1 22 12 - - S
19.05.2018 04:00:00 6,6 6,2 28 15 46 25 S

tt = temperature
td = dewpoint
ff = wind speed
fx = gusts
dd = wind direction

Next stations